Impacts METAR Board INFO
IDs:

KPHX - Phoenix/Sky Harbor, AZ, US

Updated at: 0620 UTC 14 Dec 2017
Potential Impact None Slight Moderate High
Time13/18Z 13/19Z 13/20Z 13/21Z 13/22Z 13/23Z 14/00Z 14/01Z 14/02Z 14/03Z 14/04Z 14/05Z 14/06Z
VIS10 10 10 10 10 10 10 10 10 10 10 10 10
CIG-- -- -- -- -- -- -- -- -- -- -- -- --
CoverFEWFEWFEWFEWFEWFEWCLRCLRCLRCLRCLRCLRCLR
FltCatVFRVFRVFRVFRVFRVFRVFRVFRVFRVFRVFRVFRVFR
WX--------------------------
WDir806060026026030024023023000110
WSpd12 9 3 0 3 3 4 4 5 4 0 0 4
WGst-- -- -- -- -- -- -- -- -- -- -- -- --
Raw hourly METARs
KPHX 131751Z 08012KT 10SM FEW250 20/M14 A3005 RMK AO2 SLP164 T02001139 10200 20078 58002
KPHX 131851Z 06009KT 10SM FEW250 22/M13 A3002 RMK AO2 SLP153 T02221133
KPHX 131951Z 06003KT 10SM FEW250 23/M13 A2997 RMK AO2 SLP139 T02331133
KPHX 132051Z 00000KT 10SM FEW250 24/M13 A2995 RMK AO2 SLP130 T02391128 56033
KPHX 132151Z 26003KT 10SM FEW250 24/M13 A2993 RMK AO2 SLP122 T02441128
KPHX 132251Z 26003KT 10SM FEW250 24/M12 A2991 RMK AO2 SLP118 T02441117
KPHX 132351Z 30004KT 10SM CLR 23/M12 A2991 RMK AO2 SLP118 T02331122 10250 20206 56014
KPHX 140051Z 24004KT 10SM CLR 21/M09 A2991 RMK AO2 SLP119 T02061094
KPHX 140151Z 23005KT 10SM CLR 18/M09 A2991 RMK AO2 SLP120 T01831089 $
KPHX 140251Z 23004KT 10SM CLR 16/M07 A2991 RMK AO2 SLP122 T01611072 53001 $
KPHX 140351Z 00000KT 10SM CLR 16/M08 A2991 RMK AO2 SLP120 T01611078 $
KPHX 140451Z 00000KT 10SM CLR 16/M07 A2991 RMK AO2 SLP120 T01611067 $
KPHX 140551Z 11004KT 10SM CLR 13/M05 A2991 RMK AO2 SLP118 T01331050 10233 20128 58001 $